Terminal Aerodrome Forecast
Issued by NWS

Current Version | Previous Version | Text Only | Print | Product List | Glossary On
Versions: 1 2 3 4 5 6 7 8 9 10 11 12 13 14
000
FTUS43 KMQT 260500
TAFSAW
TAF
KSAW 260520Z 2606/2706 21007KT P6SM VCSH SCT015 BKN030
      TEMPO 2606/2610 BKN015
     FM261000 22005KT 4SM BR BKN008
     FM261400 28007KT P6SM BKN020
     FM261700 34009KT P6SM BKN035
     FM262100 02010KT P6SM SCT100
     FM270100 02004KT P6SM SCT100 BKN250
      AMD LTD TO CLD VIS AND WIND TIL 261000=

USA.gov is the U.S. government's official web portal to all federal, state and local government web resources and services.